Harrisburg, Texas
Current Conditions -  °F | °C
As of 7:55 AM on Friday 24 Oct 2014 (Local Time) from KJAS Reporting Station
Clear Clear  
Wind Chill: 47°   Ceiling: Unl
Heat Index: 47°   Visibility: 7mi
Dew Point: 46°   Wind: 0mph
Humidity: 98%   Direction: NA
Pressure: 30.18"   Gusts: NA
Location:  30.9529°N, 94.0707°W
Report Text: KJAS 241255Z AUTO 00000KT 7SM CLR 08/08 A3018 RMK AO2 T00820079
Loading
Personal Weather Stations






























Interactive Weather Map
Tropical Storm Tracking
New forecast layout! Learn more

10-Day Weather Forecast

Advertisements
Track Severe Weather on mobile